Flight Track Log - Related Links

Times and Time Zones

All times are in EST time to prevent confusion due to time zone crossing. See the FAO847 flight status page for this flight to view local times or setup timezone preferences in your user account.

Time Position Orientation Groundspeed Altitude Reporting Facility
EST Latitude Longitude Course Direction KTS MPH feet Rate Location/Type
Wed 11:55:02 AM 40.6369 -89.6503 360° North 189 217 2,700  Level Chicago Center
Wed 11:55:10 AM 40.6369 -89.6503 152° Southeast 189 217 2,600 2,754 Descending Kansas City Center
Wed 11:56:03 AM 40.5789 -89.6089 152° Southeast 252 290 5,500 3,026 Climbing Chicago Center
Wed 11:57:05 AM 40.5092 -89.5672 156° South 270 311 8,400 2,419 Climbing Chicago Center
Wed 11:58:07 AM 40.4361 -89.5061 148° Southeast 300 345 10,500 1,790 Climbing Chicago Center
Wed 11:59:09 AM 40.3461 -89.4464 153° Southeast 348 400 12,100 1,694 Climbing Chicago Center
Wed 12:00:11 PM 40.2517 -89.3756 150° Southeast 380 437 14,000 1,984 Climbing Chicago Center
Wed 12:01:13 PM 40.1511 -89.3064 152° Southeast 405 466 16,200 1,850 Climbing Chicago Center
Wed 12:02:24 PM 40.0278 -89.2181 151° Southeast 411 473 18,100 1,624 Climbing Kansas City Center
Wed 12:03:26 PM 39.9231 -89.1428 151° Southeast 423 487 19,800 1,597 Climbing Kansas City Center
Wed 12:04:28 PM 39.7933 -89.0503 151° Southeast 436 502 21,400 1,548 Climbing Kansas City Center
Wed 12:05:30 PM 39.6814 -88.9694 151° Southeast 452 520 23,000 1,452 Climbing Kansas City Center
Wed 12:06:32 PM 39.5678 -88.8914 152° Southeast 455 524 24,400 1,645 Climbing Kansas City Center
Wed 12:07:34 PM 39.4572 -88.8089 150° Southeast 457 526 26,400 1,548 Climbing Kansas City Center
Wed 12:08:36 PM 39.3472 -88.7356 153° Southeast 445 512 27,600 1,306 Climbing Kansas City Center
Wed 12:09:38 PM 39.2364 -88.6581 152° Southeast 449 517 29,100 1,258 Climbing Kansas City Center
Wed 12:10:40 PM 39.1164 -88.5786 153° Southeast 445 512 30,200 774 Climbing Kansas City Center
Wed 12:11:42 PM 39.0031 -88.5183 158° South 440 506 30,700 387 Climbing Kansas City Center
Wed 12:12:44 PM 38.8897 -88.4539 156° South 440 506 31,000 145 Climbing Kansas City Center
Wed 12:13:46 PM 38.7525 -88.3794 157° South 442 509 31,000  Level Kansas City Center
Wed 12:14:48 PM 38.6386 -88.3172 157° South 442 509 31,000  Level Kansas City Center
Wed 12:15:50 PM 38.5256 -88.2558 157° South 443 510 31,000  Level Kansas City Center
Wed 12:16:52 PM 38.4122 -88.1942 157° South 443 510 31,000  Level Kansas City Center
Wed 12:17:54 PM 38.2986 -88.1331 157° South 442 509 31,000  Level Kansas City Center
Wed 12:18:56 PM 38.1853 -88.0736 158° South 442 509 31,000  Level Kansas City Center
Wed 12:19:58 PM 38.0731 -88.0122 157° South 442 509 31,000  Level Kansas City Center
Wed 12:21:00 PM 37.9383 -87.9411 157° South 442 509 31,000  Level Kansas City Center
Wed 12:22:05 PM 37.8253 -87.8800 157° South 441 507 31,000  Level Indianapolis Center
Wed 12:23:06 PM 37.7039 -87.8153 157° South 441 507 31,000  Level Indianapolis Center
Wed 12:24:08 PM 37.5886 -87.7556 158° South 441 507 31,000  Level Indianapolis Center
Wed 12:25:09 PM 37.4744 -87.6950 157° South 441 507 31,000 537 Level Indianapolis Center
Wed 12:26:11 PM 37.3611 -87.6350 157° South 441 507 32,100 783 Climbing Indianapolis Center
Wed 12:27:04 PM 37.2672 -87.5858 157° South 439 505 32,500 439 Climbing Memphis Center
Wed 12:28:14 PM 37.1350 -87.5164 157° South 439 505 33,000 240 Climbing Indianapolis Center
Wed 12:29:09 PM 37.0183 -87.4578 158° South 442 509 33,000  Level Memphis Center
Wed 12:30:11 PM 36.9031 -87.3972 157° South 443 510 33,000  Level Memphis Center
Wed 12:31:13 PM 36.7864 -87.3372 158° South 444 511 33,000  Level Memphis Center
Wed 12:32:15 PM 36.6600 -87.2731 158° South 444 511 33,000  Level Memphis Center
Wed 12:33:17 PM 36.5539 -87.2186 158° South 446 513 33,000  Level Memphis Center
Wed 12:34:19 PM 36.4378 -87.1578 157° South 447 514 33,000  Level Memphis Center
Wed 12:35:21 PM 36.3031 -87.0883 157° South 448 516 33,000  Level Memphis Center
Wed 12:36:23 PM 36.1850 -87.0300 158° South 455 524 33,000  Level Memphis Center
Wed 12:37:25 PM 36.0669 -86.9700 158° South 458 527 33,000  Level Memphis Center
Wed 12:38:27 PM 35.9478 -86.9108 158° South 458 527 33,000  Level Memphis Center
Wed 12:39:29 PM 35.8164 -86.8447 158° South 458 527 33,000  Level Memphis Center
Wed 12:40:31 PM 35.6911 -86.7817 158° South 458 527 33,000  Level Memphis Center
Wed 12:41:34 PM 35.5722 -86.7231 158° South 458 527 33,000  Level Memphis Center
Wed 12:42:36 PM 35.4544 -86.6639 158° South 456 525 33,000  Level Memphis Center
Wed 12:43:38 PM 35.3358 -86.6056 158° South 455 524 33,000  Level Memphis Center
Wed 12:44:40 PM 35.2169 -86.5461 158° South 455 524 33,000  Level Memphis Center
Wed 12:45:42 PM 35.0853 -86.4808 158° South 456 525 33,000  Level Memphis Center
Wed 12:46:44 PM 34.9661 -86.4214 158° South 458 527 33,000  Level Memphis Center
Wed 12:47:46 PM 34.8475 -86.3642 158° South 458 527 33,000  Level Memphis Center
Wed 12:48:34 PM 34.7542 -86.3167 157° South 457 526 33,000  Level Atlanta Center
Wed 12:49:34 PM 34.6217 -86.2550 159° South 462 532 33,000  Level Atlanta Center
Wed 12:50:34 PM 34.5017 -86.1964 158° South 462 532 33,000  Level Atlanta Center
Wed 12:51:34 PM 34.3797 -86.1328 157° South 468 539 33,000  Level Atlanta Center
Wed 12:52:34 PM 34.2553 -86.0744 159° South 468 539 33,000  Level Atlanta Center
Wed 12:53:34 PM 34.1333 -86.0164 158° South 468 539 33,000  Level Atlanta Center
Wed 12:54:34 PM 34.0089 -85.9558 158° South 468 539 33,000  Level Atlanta Center
Wed 12:55:34 PM 33.8867 -85.8981 159° South 468 539 33,000  Level Atlanta Center
Wed 12:56:34 PM 33.7622 -85.8403 159° South 468 539 33,000  Level Atlanta Center
Wed 12:57:34 PM 33.6442 -85.7881 160° South 463 533 33,000  Level Atlanta Center
Wed 12:58:34 PM 33.5197 -85.7283 158° South 468 539 33,000  Level Atlanta Center
Wed 12:59:34 PM 33.4014 -85.6711 158° South 473 544 33,000  Level Atlanta Center
Wed 01:00:34 PM 33.2917 -85.6144 157° South 467 537 33,000  Level Atlanta Center
Wed 01:01:34 PM 33.1711 -85.5603 159° South 467 537 33,000  Level Atlanta Center
Wed 01:02:34 PM 33.0550 -85.5061 159° South 462 532 33,000  Level Atlanta Center
Wed 01:03:34 PM 32.9325 -85.4494 159° South 462 532 33,000  Level Atlanta Center
Wed 01:04:34 PM 32.8161 -85.3958 159° South 469 540 33,000  Level Atlanta Center
Wed 01:05:34 PM 32.6997 -85.3447 160° South 451 519 33,000  Level Atlanta Center
Wed 01:06:34 PM 32.5836 -85.2886 158° South 451 519 33,000  Level Atlanta Center
Wed 01:07:34 PM 32.4650 -85.2328 158° South 451 519 33,000  Level Atlanta Center
Wed 01:08:34 PM 32.3364 -85.1747 159° South 451 519 33,000  Level Atlanta Center
Wed 01:09:34 PM 32.2303 -85.1314 161° South 451 519 33,000  Level Atlanta Center
Wed 01:10:34 PM 32.1181 -85.0786 158° South 451 519 33,000  Level Atlanta Center
Wed 01:12:19 PM 31.9050 -84.9775 158° South 471 542 33,000  Level Jacksonville Center
Wed 01:13:19 PM 31.8056 -84.9339 160° South 449 517 33,000  Level Jacksonville Center
Wed 01:14:19 PM 31.6875 -84.8825 160° South 444 511 33,000  Level Jacksonville Center
Wed 01:15:19 PM 31.5733 -84.8289 158° South 449 517 33,000 -200 Level Jacksonville Center
Wed 01:16:19 PM 31.4594 -84.7728 157° South 444 511 32,600 -550 Descending Jacksonville Center
Wed 01:17:19 PM 31.3497 -84.7097 154° Southeast 444 511 31,900 -650 Descending Jacksonville Center
Wed 01:18:19 PM 31.2378 -84.6444 153° Southeast 450 518 31,300 -450 Descending Jacksonville Center
Wed 01:19:19 PM 31.1239 -84.5792 154° Southeast 450 518 31,000 -150 Descending Jacksonville Center
Wed 01:20:19 PM 31.0100 -84.5142 154° Southeast 450 518 31,000  Level Jacksonville Center
Wed 01:21:19 PM 30.8958 -84.4517 155° Southeast 450 518 31,000  Level Jacksonville Center
Wed 01:22:19 PM 30.7839 -84.3869 154° Southeast 450 518 31,000  Level Jacksonville Center
Wed 01:23:19 PM 30.6678 -84.3200 154° Southeast 462 532 31,000  Level Jacksonville Center
Wed 01:24:19 PM 30.5558 -84.2556 154° Southeast 462 532 31,000  Level Jacksonville Center
Wed 01:25:19 PM 30.4417 -84.1914 154° Southeast 457 526 31,000  Level Jacksonville Center
Wed 01:26:19 PM 30.3336 -84.1297 154° Southeast 450 518 31,000  Level Jacksonville Center
Wed 01:27:19 PM 30.2194 -84.0681 155° Southeast 443 510 31,000 -250 Level Jacksonville Center
Wed 01:28:19 PM 30.1092 -84.0042 153° Southeast 443 510 30,500 -650 Descending Jacksonville Center
Wed 01:29:19 PM 29.9969 -83.9406 154° Southeast 443 510 29,700 -850 Descending Jacksonville Center
Wed 01:30:19 PM 29.8828 -83.8794 155° Southeast 443 510 28,800 -850 Descending Jacksonville Center
Wed 01:31:19 PM 29.7683 -83.8136 153° Southeast 453 521 28,000 -850 Descending Jacksonville Center
Wed 01:32:19 PM 29.6497 -83.7481 154° Southeast 460 529 27,100 -500 Descending Jacksonville Center
Wed 01:33:19 PM 29.5375 -83.6875 155° Southeast 460 529 27,000 -100 Descending Jacksonville Center
Wed 01:34:19 PM 29.4231 -83.6244 154° Southeast 460 529 26,900 -550 Descending Jacksonville Center
Wed 01:35:19 PM 29.3106 -83.5617 154° Southeast 460 529 25,900 -1,000 Descending Jacksonville Center
Wed 01:36:19 PM 29.1983 -83.4967 153° Southeast 455 524 24,900 -1,050 Descending Jacksonville Center
Wed 01:37:19 PM 29.0900 -83.4297 152° Southeast 445 512 23,800 -1,250 Descending Jacksonville Center
Wed 01:38:19 PM 28.9839 -83.3603 150° Southeast 445 512 22,400 -1,500 Descending Jacksonville Center
Wed 01:39:19 PM 28.8817 -83.2981 152° Southeast 430 495 20,800 -1,650 Descending Jacksonville Center
Wed 01:40:19 PM 28.7797 -83.2314 150° Southeast 423 487 19,100 -1,623 Descending Jacksonville Center
Wed 01:42:46 PM 28.5333 -83.0833 152° Southeast 383 441 15,200 -1,536 Descending Tampa TRACON
Wed 01:43:46 PM 28.4500 -83.0167 145° Southeast 377 434 13,800 -1,450 Descending Tampa TRACON
Wed 01:44:46 PM 28.3500 -82.9667 156° South 371 427 12,300 -1,286 Descending Tampa TRACON
Wed 01:45:52 PM 28.2500 -82.9000 150° Southeast 346 398 11,100 -1,000 Descending Tampa TRACON
Wed 01:46:52 PM 28.1833 -82.8667 156° South 285 328 10,200 -1,300 Descending Tampa TRACON
Wed 01:47:52 PM 28.1000 -82.8333 161° South 276 318 8,500 -1,983 Descending Tampa TRACON
Wed 01:48:47 PM 28.0333 -82.8167 168° South 273 314 6,400 -2,263 Descending Tampa TRACON
Wed 01:49:46 PM 27.9667 -82.8000 168° South 244 281 4,200 -1,700 Descending Tampa TRACON
Wed 01:50:47 PM 27.9167 -82.7833 164° South 214 246 3,000 -567 Descending Tampa TRACON
Wed 01:51:53 PM 27.8500 -82.7833 180° South 162 186 3,000  Level Tampa TRACON
Wed 01:52:52 PM 27.8167 -82.7667 156° South 169 194 3,000 -300 Level Tampa TRACON
Wed 01:53:53 PM 27.7833 -82.7333 138° Southeast 192 221 2,400 -694 Descending Tampa TRACON
Wed 01:54:53 PM 27.8167 -82.6833 53° Northeast 196 226 1,600 -714 Descending Tampa TRACON
Wed 01:55:59 PM 27.8500 -82.6833 360° North 152 175 900 -636 Descending Tampa TRACON

Login

Don't have an account? Register now (free) for customized features, flight alerts, and more!